sensor_id;sensor_type;location;lat;lon;timestamp;pressure;altitude;pressure_sealevel;temperature;humidity
21236;BME280;10775;42.678;26.324;2022-09-09T00:01:36;98896.50;;;22.63;53.36
21236;BME280;10775;42.678;26.324;2022-09-09T00:04:12;98895.03;;;22.71;52.91
21236;BME280;10775;42.678;26.324;2022-09-09T00:09:28;98895.78;;;22.46;53.74
21236;BME280;10775;42.678;26.324;2022-09-09T00:12:01;98892.06;;;22.49;53.73
21236;BME280;10775;42.678;26.324;2022-09-09T00:14:37;98900.22;;;22.33;54.41
21236;BME280;10775;42.678;26.324;2022-09-09T00:17:12;98902.66;;;22.36;54.20
21236;BME280;10775;42.678;26.324;2022-09-09T00:19:55;98911.97;;;22.43;54.04
21236;BME280;10775;42.678;26.324;2022-09-09T00:22:23;98913.59;;;22.46;54.03
21236;BME280;10775;42.678;26.324;2022-09-09T00:24:55;98909.34;;;22.29;54.34
21236;BME280;10775;42.678;26.324;2022-09-09T00:27:36;98909.06;;;22.33;54.29
21236;BME280;10775;42.678;26.324;2022-09-09T00:30:19;98911.97;;;22.43;54.07
21236;BME280;10775;42.678;26.324;2022-09-09T00:32:50;98913.00;;;22.55;53.58
21236;BME280;10775;42.678;26.324;2022-09-09T00:35:31;98899.69;;;22.55;53.70
21236;BME280;10775;42.678;26.324;2022-09-09T00:38:14;98899.50;;;22.44;53.71
21236;BME280;10775;42.678;26.324;2022-09-09T00:41:11;98902.88;;;22.19;54.40
21236;BME280;10775;42.678;26.324;2022-09-09T00:43:41;98894.75;;;22.22;54.46
21236;BME280;10775;42.678;26.324;2022-09-09T00:46:28;98895.19;;;22.28;54.15
21236;BME280;10775;42.678;26.324;2022-09-09T00:54:40;98905.44;;;22.06;55.03
21236;BME280;10775;42.678;26.324;2022-09-09T00:57:29;98895.94;;;22.16;54.70
21236;BME280;10775;42.678;26.324;2022-09-09T01:00:24;98904.56;;;22.34;54.10
21236;BME280;10775;42.678;26.324;2022-09-09T01:05:51;98896.50;;;22.35;54.09
21236;BME280;10775;42.678;26.324;2022-09-09T01:11:03;98903.47;;;22.51;54.15
21236;BME280;10775;42.678;26.324;2022-09-09T01:13:32;98902.38;;;22.41;53.60
21236;BME280;10775;42.678;26.324;2022-09-09T01:16:00;98904.00;;;22.29;54.24
21236;BME280;10775;42.678;26.324;2022-09-09T01:18:38;98907.34;;;22.18;54.27
21236;BME280;10775;42.678;26.324;2022-09-09T01:23:51;98901.09;;;22.05;54.52
21236;BME280;10775;42.678;26.324;2022-09-09T01:26:25;98903.34;;;22.11;54.88
21236;BME280;10775;42.678;26.324;2022-09-09T01:28:52;98899.56;;;22.01;54.98
21236;BME280;10775;42.678;26.324;2022-09-09T01:31:31;98896.75;;;21.75;55.31
21236;BME280;10775;42.678;26.324;2022-09-09T01:33:58;98898.00;;;21.84;55.32
21236;BME280;10775;42.678;26.324;2022-09-09T01:36:38;98892.84;;;21.95;55.33
21236;BME280;10775;42.678;26.324;2022-09-09T01:39:06;98899.41;;;22.04;54.77
21236;BME280;10775;42.678;26.324;2022-09-09T01:41:32;98888.06;;;22.14;54.46
21236;BME280;10775;42.678;26.324;2022-09-09T01:43:58;98892.63;;;21.98;54.78
21236;BME280;10775;42.678;26.324;2022-09-09T01:46:23;98892.63;;;22.12;54.63
21236;BME280;10775;42.678;26.324;2022-09-09T01:48:54;98896.97;;;22.13;54.45
21236;BME280;10775;42.678;26.324;2022-09-09T01:51:20;98890.44;;;22.05;54.83
21236;BME280;10775;42.678;26.324;2022-09-09T01:53:46;98883.22;;;22.07;54.77
21236;BME280;10775;42.678;26.324;2022-09-09T02:07:00;98887.81;;;21.03;56.69
21236;BME280;10775;42.678;26.324;2022-09-09T02:09:26;98886.22;;;21.45;56.64
21236;BME280;10775;42.678;26.324;2022-09-09T02:12:14;98888.00;;;22.02;55.01
21236;BME280;10775;42.678;26.324;2022-09-09T02:14:47;98885.22;;;22.03;54.58
21236;BME280;10775;42.678;26.324;2022-09-09T02:17:19;98886.00;;;21.91;54.93
21236;BME280;10775;42.678;26.324;2022-09-09T02:19:50;98886.00;;;21.77;55.31
21236;BME280;10775;42.678;26.324;2022-09-09T02:22:19;98884.28;;;21.90;55.16
21236;BME280;10775;42.678;26.324;2022-09-09T02:24:49;98891.28;;;22.05;54.37
21236;BME280;10775;42.678;26.324;2022-09-09T02:27:18;98892.72;;;22.11;54.38
21236;BME280;10775;42.678;26.324;2022-09-09T02:29:45;98893.19;;;22.03;54.40
21236;BME280;10775;42.678;26.324;2022-09-09T02:32:15;98888.31;;;21.68;55.49
21236;BME280;10775;42.678;26.324;2022-09-09T02:34:52;98889.63;;;21.61;55.80
21236;BME280;10775;42.678;26.324;2022-09-09T02:37:22;98893.50;;;21.84;54.92
21236;BME280;10775;42.678;26.324;2022-09-09T02:39:50;98883.44;;;21.89;54.70
21236;BME280;10775;42.678;26.324;2022-09-09T02:42:16;98886.75;;;21.93;54.78
21236;BME280;10775;42.678;26.324;2022-09-09T02:44:42;98886.56;;;21.96;54.48
21236;BME280;10775;42.678;26.324;2022-09-09T02:49:58;98875.16;;;21.80;55.02
21236;BME280;10775;42.678;26.324;2022-09-09T02:58:05;98876.03;;;21.52;55.90
21236;BME280;10775;42.678;26.324;2022-09-09T03:00:32;98884.41;;;20.55;58.04
21236;BME280;10775;42.678;26.324;2022-09-09T03:02:58;98890.69;;;21.14;57.53
21236;BME280;10775;42.678;26.324;2022-09-09T03:05:24;98873.38;;;21.52;56.05
21236;BME280;10775;42.678;26.324;2022-09-09T03:07:50;98878.59;;;21.67;55.50
21236;BME280;10775;42.678;26.324;2022-09-09T03:10:16;98875.47;;;21.61;55.21
21236;BME280;10775;42.678;26.324;2022-09-09T03:12:43;98871.28;;;21.57;55.41
21236;BME280;10775;42.678;26.324;2022-09-09T03:15:09;98878.84;;;21.34;56.06
21236;BME280;10775;42.678;26.324;2022-09-09T03:17:35;98880.31;;;21.40;56.08
21236;BME280;10775;42.678;26.324;2022-09-09T03:20:04;98885.38;;;21.28;56.27
21236;BME280;10775;42.678;26.324;2022-09-09T03:22:29;98887.78;;;21.33;56.38
21236;BME280;10775;42.678;26.324;2022-09-09T03:24:55;98892.31;;;21.31;56.58
21236;BME280;10775;42.678;26.324;2022-09-09T03:27:20;98887.06;;;21.60;55.76
21236;BME280;10775;42.678;26.324;2022-09-09T03:29:46;98889.63;;;21.61;55.26
21236;BME280;10775;42.678;26.324;2022-09-09T03:32:12;98894.91;;;21.33;56.25
21236;BME280;10775;42.678;26.324;2022-09-09T03:34:38;98889.00;;;21.27;56.30
21236;BME280;10775;42.678;26.324;2022-09-09T03:37:07;98890.50;;;21.17;56.44
21236;BME280;10775;42.678;26.324;2022-09-09T03:39:32;98888.81;;;21.31;56.40
21236;BME280;10775;42.678;26.324;2022-09-09T03:41:58;98883.13;;;21.22;56.19
21236;BME280;10775;42.678;26.324;2022-09-09T03:44:23;98888.69;;;21.18;56.34
21236;BME280;10775;42.678;26.324;2022-09-09T03:46:49;98889.25;;;21.09;56.58
21236;BME280;10775;42.678;26.324;2022-09-09T03:49:14;98888.50;;;21.06;56.78
21236;BME280;10775;42.678;26.324;2022-09-09T03:51:40;98895.81;;;21.17;56.69
21236;BME280;10775;42.678;26.324;2022-09-09T03:54:07;98891.28;;;21.19;56.31
21236;BME280;10775;42.678;26.324;2022-09-09T03:56:34;98887.75;;;21.19;56.27
21236;BME280;10775;42.678;26.324;2022-09-09T03:59:00;98892.41;;;21.15;56.42
21236;BME280;10775;42.678;26.324;2022-09-09T04:01:26;98892.19;;;21.04;56.88
21236;BME280;10775;42.678;26.324;2022-09-09T04:03:52;98889.03;;;20.97;56.84
21236;BME280;10775;42.678;26.324;2022-09-09T04:06:18;98883.25;;;20.75;57.57
21236;BME280;10775;42.678;26.324;2022-09-09T04:08:45;98883.47;;;20.86;57.45
21236;BME280;10775;42.678;26.324;2022-09-09T04:11:13;98888.59;;;21.05;56.71
21236;BME280;10775;42.678;26.324;2022-09-09T04:13:39;98893.13;;;21.03;56.90
21236;BME280;10775;42.678;26.324;2022-09-09T04:16:05;98895.19;;;20.98;57.04
21236;BME280;10775;42.678;26.324;2022-09-09T04:18:31;98894.16;;;21.00;56.67
21236;BME280;10775;42.678;26.324;2022-09-09T04:20:57;98889.69;;;21.01;56.29
21236;BME280;10775;42.678;26.324;2022-09-09T04:23:25;98890.72;;;20.98;57.14
21236;BME280;10775;42.678;26.324;2022-09-09T04:25:53;98888.78;;;20.86;57.01
21236;BME280;10775;42.678;26.324;2022-09-09T04:28:20;98891.88;;;20.94;56.88
21236;BME280;10775;42.678;26.324;2022-09-09T04:30:46;98890.34;;;20.90;56.99
21236;BME280;10775;42.678;26.324;2022-09-09T04:33:13;98889.03;;;20.97;56.59
21236;BME280;10775;42.678;26.324;2022-09-09T04:35:44;98885.59;;;20.95;56.86
21236;BME280;10775;42.678;26.324;2022-09-09T04:38:10;98892.53;;;20.98;56.54
21236;BME280;10775;42.678;26.324;2022-09-09T04:40:36;98896.03;;;20.98;56.54
21236;BME280;10775;42.678;26.324;2022-09-09T04:43:02;98891.03;;;21.08;56.75
21236;BME280;10775;42.678;26.324;2022-09-09T04:45:30;98890.19;;;21.08;56.45
21236;BME280;10775;42.678;26.324;2022-09-09T04:47:56;98891.16;;;21.21;55.85
21236;BME280;10775;42.678;26.324;2022-09-09T04:50:21;98896.38;;;21.08;56.17
21236;BME280;10775;42.678;26.324;2022-09-09T04:52:47;98904.72;;;21.16;55.97
21236;BME280;10775;42.678;26.324;2022-09-09T04:55:13;98898.75;;;21.13;56.10
21236;BME280;10775;42.678;26.324;2022-09-09T04:57:40;98896.03;;;21.14;56.23
21236;BME280;10775;42.678;26.324;2022-09-09T05:00:06;98905.50;;;21.18;55.86
21236;BME280;10775;42.678;26.324;2022-09-09T05:02:32;98903.81;;;21.32;55.56
21236;BME280;10775;42.678;26.324;2022-09-09T05:04:58;98905.19;;;21.39;55.29
21236;BME280;10775;42.678;26.324;2022-09-09T05:07:24;98901.06;;;21.33;55.48
21236;BME280;10775;42.678;26.324;2022-09-09T05:09:52;98897.84;;;21.28;55.56
21236;BME280;10775;42.678;26.324;2022-09-09T05:12:17;98905.31;;;21.21;56.04
21236;BME280;10775;42.678;26.324;2022-09-09T05:14:43;98893.38;;;21.28;55.45
21236;BME280;10775;42.678;26.324;2022-09-09T05:17:09;98887.06;;;21.45;55.47
21236;BME280;10775;42.678;26.324;2022-09-09T05:19:35;98888.88;;;21.59;54.57
21236;BME280;10775;42.678;26.324;2022-09-09T05:22:01;98894.66;;;21.52;54.80
21236;BME280;10775;42.678;26.324;2022-09-09T05:24:27;98892.56;;;21.57;54.51
21236;BME280;10775;42.678;26.324;2022-09-09T05:26:52;98891.31;;;21.62;54.40
21236;BME280;10775;42.678;26.324;2022-09-09T05:29:18;98889.91;;;21.57;54.54
21236;BME280;10775;42.678;26.324;2022-09-09T05:31:46;98882.88;;;21.56;54.51
21236;BME280;10775;42.678;26.324;2022-09-09T05:34:12;98895.34;;;21.55;54.62
21236;BME280;10775;42.678;26.324;2022-09-09T05:36:37;98888.38;;;21.67;54.22
21236;BME280;10775;42.678;26.324;2022-09-09T05:39:03;98889.22;;;21.67;54.27
21236;BME280;10775;42.678;26.324;2022-09-09T05:41:29;98888.78;;;21.61;54.44
21236;BME280;10775;42.678;26.324;2022-09-09T05:43:55;98885.56;;;21.56;54.07
21236;BME280;10775;42.678;26.324;2022-09-09T05:46:23;98889.63;;;21.61;54.48
21236;BME280;10775;42.678;26.324;2022-09-09T05:48:50;98892.66;;;21.69;54.15
21236;BME280;10775;42.678;26.324;2022-09-09T05:51:22;98891.03;;;21.67;54.04
21236;BME280;10775;42.678;26.324;2022-09-09T05:53:50;98889.16;;;21.69;54.23
21236;BME280;10775;42.678;26.324;2022-09-09T05:56:19;98896.66;;;21.62;54.19
21236;BME280;10775;42.678;26.324;2022-09-09T05:58:46;98896.56;;;21.64;54.15
21236;BME280;10775;42.678;26.324;2022-09-09T06:01:30;98903.22;;;21.71;53.98
21236;BME280;10775;42.678;26.324;2022-09-09T06:03:57;98897.31;;;21.80;53.74
21236;BME280;10775;42.678;26.324;2022-09-09T06:06:25;98895.13;;;21.73;53.92
21236;BME280;10775;42.678;26.324;2022-09-09T06:08:53;98900.56;;;21.71;53.86
21236;BME280;10775;42.678;26.324;2022-09-09T06:11:21;98899.88;;;21.67;54.14
21236;BME280;10775;42.678;26.324;2022-09-09T06:13:48;98900.66;;;21.84;53.88
21236;BME280;10775;42.678;26.324;2022-09-09T06:16:18;98901.59;;;21.97;53.35
21236;BME280;10775;42.678;26.324;2022-09-09T06:18:44;98908.44;;;22.01;53.08
21236;BME280;10775;42.678;26.324;2022-09-09T06:21:22;98905.94;;;21.98;53.13
21236;BME280;10775;42.678;26.324;2022-09-09T06:23:49;98897.78;;;22.01;53.23
21236;BME280;10775;42.678;26.324;2022-09-09T06:26:21;98894.06;;;22.04;52.95
21236;BME280;10775;42.678;26.324;2022-09-09T06:28:49;98892.63;;;22.27;52.41
21236;BME280;10775;42.678;26.324;2022-09-09T06:31:17;98892.06;;;22.22;52.44
21236;BME280;10775;42.678;26.324;2022-09-09T06:33:47;98901.56;;;22.26;52.30
21236;BME280;10775;42.678;26.324;2022-09-09T06:36:15;98903.97;;;22.02;52.80
21236;BME280;10775;42.678;26.324;2022-09-09T06:38:41;98906.34;;;22.06;52.69
21236;BME280;10775;42.678;26.324;2022-09-09T06:41:09;98903.34;;;22.40;53.11
21236;BME280;10775;42.678;26.324;2022-09-09T06:43:35;98908.25;;;24.15;48.17
21236;BME280;10775;42.678;26.324;2022-09-09T06:46:05;98900.66;;;25.18;46.18
21236;BME280;10775;42.678;26.324;2022-09-09T06:48:31;98886.56;;;25.85;44.44
21236;BME280;10775;42.678;26.324;2022-09-09T06:51:09;98878.75;;;25.93;43.72
21236;BME280;10775;42.678;26.324;2022-09-09T06:53:35;98883.22;;;25.70;44.57
21236;BME280;10775;42.678;26.324;2022-09-09T06:56:15;98885.88;;;26.27;43.67
21236;BME280;10775;42.678;26.324;2022-09-09T06:58:43;98889.13;;;26.53;42.58
21236;BME280;10775;42.678;26.324;2022-09-09T07:01:18;98891.03;;;27.26;40.88
21236;BME280;10775;42.678;26.324;2022-09-09T07:03:49;98898.34;;;27.45;41.18
21236;BME280;10775;42.678;26.324;2022-09-09T07:08:53;98894.56;;;27.27;40.57
21236;BME280;10775;42.678;26.324;2022-09-09T07:11:22;98904.25;;;27.91;39.79
21236;BME280;10775;42.678;26.324;2022-09-09T07:13:48;98898.41;;;28.16;38.71
21236;BME280;10775;42.678;26.324;2022-09-09T07:16:17;98900.16;;;27.96;39.52
21236;BME280;10775;42.678;26.324;2022-09-09T07:18:43;98897.97;;;28.61;38.04
21236;BME280;10775;42.678;26.324;2022-09-09T07:21:14;98894.69;;;28.48;37.69
21236;BME280;10775;42.678;26.324;2022-09-09T07:23:40;98894.28;;;28.72;37.45
21236;BME280;10775;42.678;26.324;2022-09-09T07:26:17;98892.28;;;29.03;36.67
21236;BME280;10775;42.678;26.324;2022-09-09T07:28:44;98897.75;;;28.44;37.93
21236;BME280;10775;42.678;26.324;2022-09-09T07:31:19;98897.13;;;28.11;38.82
21236;BME280;10775;42.678;26.324;2022-09-09T07:33:46;98894.41;;;28.90;36.85
21236;BME280;10775;42.678;26.324;2022-09-09T07:36:23;98896.34;;;27.99;38.52
21236;BME280;10775;42.678;26.324;2022-09-09T07:38:51;98908.34;;;27.85;39.59
21236;BME280;10775;42.678;26.324;2022-09-09T07:41:25;98907.44;;;27.54;39.07
21236;BME280;10775;42.678;26.324;2022-09-09T07:43:52;98904.94;;;27.62;39.71
21236;BME280;10775;42.678;26.324;2022-09-09T07:46:22;98906.78;;;28.23;38.19
21236;BME280;10775;42.678;26.324;2022-09-09T07:48:50;98898.22;;;27.78;38.88
21236;BME280;10775;42.678;26.324;2022-09-09T07:51:19;98899.28;;;28.27;38.59
21236;BME280;10775;42.678;26.324;2022-09-09T07:53:47;98892.34;;;28.24;39.33
21236;BME280;10775;42.678;26.324;2022-09-09T07:56:15;98889.25;;;28.38;38.34
21236;BME280;10775;42.678;26.324;2022-09-09T07:58:47;98891.03;;;28.69;37.46
21236;BME280;10775;42.678;26.324;2022-09-09T08:01:27;98897.44;;;28.37;37.84
21236;BME280;10775;42.678;26.324;2022-09-09T08:03:58;98888.75;;;28.54;37.81
21236;BME280;10775;42.678;26.324;2022-09-09T08:06:26;98885.06;;;28.55;37.40
21236;BME280;10775;42.678;26.324;2022-09-09T08:08:52;98879.97;;;27.41;39.68
21236;BME280;10775;42.678;26.324;2022-09-09T08:11:20;98875.88;;;28.48;38.31
21236;BME280;10775;42.678;26.324;2022-09-09T08:13:46;98876.16;;;28.94;36.87
21236;BME280;10775;42.678;26.324;2022-09-09T08:16:15;98871.63;;;29.14;36.03
21236;BME280;10775;42.678;26.324;2022-09-09T08:18:41;98873.44;;;28.45;37.14
21236;BME280;10775;42.678;26.324;2022-09-09T08:21:17;98877.97;;;27.73;38.54
21236;BME280;10775;42.678;26.324;2022-09-09T08:23:44;98878.28;;;28.01;38.77
21236;BME280;10775;42.678;26.324;2022-09-09T08:26:22;98879.59;;;27.55;38.61
21236;BME280;10775;42.678;26.324;2022-09-09T08:28:52;98878.31;;;28.11;38.38
21236;BME280;10775;42.678;26.324;2022-09-09T08:31:30;98871.69;;;28.25;38.09
21236;BME280;10775;42.678;26.324;2022-09-09T08:33:57;98865.81;;;28.50;37.29
21236;BME280;10775;42.678;26.324;2022-09-09T08:36:27;98868.44;;;28.31;37.10
21236;BME280;10775;42.678;26.324;2022-09-09T08:38:54;98864.34;;;28.36;37.10
21236;BME280;10775;42.678;26.324;2022-09-09T08:54:55;98871.06;;;28.02;37.37
21236;BME280;10775;42.678;26.324;2022-09-09T08:57:26;98877.75;;;28.07;36.97
21236;BME280;10775;42.678;26.324;2022-09-09T08:59:55;98858.59;;;28.80;37.14
21236;BME280;10775;42.678;26.324;2022-09-09T09:02:38;98840.06;;;28.77;36.18
21236;BME280;10775;42.678;26.324;2022-09-09T09:05:29;98836.34;;;28.39;36.62
21236;BME280;10775;42.678;26.324;2022-09-09T09:08:33;98843.63;;;28.48;37.11
21236;BME280;10775;42.678;26.324;2022-09-09T09:11:03;98832.72;;;28.69;36.30
21236;BME280;10775;42.678;26.324;2022-09-09T09:16:24;98824.06;;;28.75;36.13
21236;BME280;10775;42.678;26.324;2022-09-09T09:18:48;98822.38;;;28.65;35.21
21236;BME280;10775;42.678;26.324;2022-09-09T09:21:25;98823.78;;;28.49;35.19
21236;BME280;10775;42.678;26.324;2022-09-09T09:26:20;98826.16;;;28.33;36.59
21236;BME280;10775;42.678;26.324;2022-09-09T09:28:47;98822.81;;;28.70;36.29
21236;BME280;10775;42.678;26.324;2022-09-09T09:31:13;98830.88;;;28.89;36.18
21236;BME280;10775;42.678;26.324;2022-09-09T09:33:50;98828.31;;;29.07;35.43
21236;BME280;10775;42.678;26.324;2022-09-09T09:36:16;98835.25;;;29.10;35.25
21236;BME280;10775;42.678;26.324;2022-09-09T09:39:02;98825.44;;;28.99;35.93
21236;BME280;10775;42.678;26.324;2022-09-09T09:41:39;98831.28;;;28.65;35.95
21236;BME280;10775;42.678;26.324;2022-09-09T09:44:26;98829.13;;;28.39;36.49
21236;BME280;10775;42.678;26.324;2022-09-09T09:46:53;98816.25;;;28.24;36.33
21236;BME280;10775;42.678;26.324;2022-09-09T09:49:19;98815.69;;;28.39;35.83
21236;BME280;10775;42.678;26.324;2022-09-09T09:51:44;98820.78;;;28.43;36.80
21236;BME280;10775;42.678;26.324;2022-09-09T09:56:41;98817.34;;;28.11;36.66
21236;BME280;10775;42.678;26.324;2022-09-09T09:59:23;98812.75;;;28.52;36.83
21236;BME280;10775;42.678;26.324;2022-09-09T10:04:38;98809.34;;;28.40;37.23
21236;BME280;10775;42.678;26.324;2022-09-09T10:07:20;98808.66;;;28.48;37.04
21236;BME280;10775;42.678;26.324;2022-09-09T10:09:57;98810.75;;;28.83;36.74
21236;BME280;10775;42.678;26.324;2022-09-09T10:15:13;98798.28;;;28.92;36.47
21236;BME280;10775;42.678;26.324;2022-09-09T10:31:50;98789.69;;;28.69;36.99
21236;BME280;10775;42.678;26.324;2022-09-09T10:36:58;98788.97;;;28.38;37.04
21236;BME280;10775;42.678;26.324;2022-09-09T10:39:37;98790.94;;;28.36;37.31
21236;BME280;10775;42.678;26.324;2022-09-09T10:42:15;98801.53;;;27.78;37.87
21236;BME280;10775;42.678;26.324;2022-09-09T10:57:05;98775.94;;;28.82;36.18
21236;BME280;10775;42.678;26.324;2022-09-09T10:59:38;98772.16;;;29.22;36.48
21236;BME280;10775;42.678;26.324;2022-09-09T11:02:14;98773.03;;;29.22;35.58
21236;BME280;10775;42.678;26.324;2022-09-09T11:04:53;98763.22;;;28.55;36.81
21236;BME280;10775;42.678;26.324;2022-09-09T11:07:41;98756.69;;;28.18;37.00
21236;BME280;10775;42.678;26.324;2022-09-09T11:13:05;98763.09;;;29.23;36.00
21236;BME280;10775;42.678;26.324;2022-09-09T11:15:44;98749.47;;;29.62;35.35
21236;BME280;10775;42.678;26.324;2022-09-09T11:18:15;98749.56;;;29.42;35.52
21236;BME280;10775;42.678;26.324;2022-09-09T11:20:44;98757.00;;;29.31;35.57
21236;BME280;10775;42.678;26.324;2022-09-09T11:23:40;98746.75;;;29.34;35.78
21236;BME280;10775;42.678;26.324;2022-09-09T11:26:14;98737.59;;;29.55;35.50
21236;BME280;10775;42.678;26.324;2022-09-09T11:37:14;98733.25;;;29.44;35.70
21236;BME280;10775;42.678;26.324;2022-09-09T11:40:24;98721.28;;;29.29;35.77
21236;BME280;10775;42.678;26.324;2022-09-09T11:43:09;98717.28;;;29.60;35.47
21236;BME280;10775;42.678;26.324;2022-09-09T11:45:39;98714.28;;;30.09;34.28
21236;BME280;10775;42.678;26.324;2022-09-09T11:48:26;98699.66;;;29.94;34.30
21236;BME280;10775;42.678;26.324;2022-09-09T11:51:02;98701.06;;;29.98;34.44
21236;BME280;10775;42.678;26.324;2022-09-09T11:53:31;98702.06;;;29.79;34.87
21236;BME280;10775;42.678;26.324;2022-09-09T11:57:02;98705.59;;;29.79;34.50
21236;BME280;10775;42.678;26.324;2022-09-09T12:05:05;98699.75;;;29.84;35.04
21236;BME280;10775;42.678;26.324;2022-09-09T12:12:36;98679.56;;;29.42;35.11
21236;BME280;10775;42.678;26.324;2022-09-09T12:17:44;98682.25;;;29.42;35.32
21236;BME280;10775;42.678;26.324;2022-09-09T12:20:15;98678.56;;;29.71;34.57
21236;BME280;10775;42.678;26.324;2022-09-09T12:33:43;98649.13;;;29.60;34.33
21236;BME280;10775;42.678;26.324;2022-09-09T12:36:29;98654.09;;;29.82;35.24
21236;BME280;10775;42.678;26.324;2022-09-09T12:38:59;98654.25;;;29.81;34.87
21236;BME280;10775;42.678;26.324;2022-09-09T12:41:35;98648.63;;;30.10;34.19
21236;BME280;10775;42.678;26.324;2022-09-09T12:44:10;98649.03;;;29.97;34.61
21236;BME280;10775;42.678;26.324;2022-09-09T12:46:40;98643.22;;;30.10;34.50
21236;BME280;10775;42.678;26.324;2022-09-09T12:49:30;98634.78;;;30.05;34.36
21236;BME280;10775;42.678;26.324;2022-09-09T12:52:01;98627.63;;;30.22;34.45
21236;BME280;10775;42.678;26.324;2022-09-09T12:54:32;98628.28;;;29.16;35.24
21236;BME280;10775;42.678;26.324;2022-09-09T12:56:58;98628.09;;;29.28;35.47
21236;BME280;10775;42.678;26.324;2022-09-09T12:59:26;98620.69;;;29.30;36.02
21236;BME280;10775;42.678;26.324;2022-09-09T13:01:59;98613.59;;;29.56;35.57
21236;BME280;10775;42.678;26.324;2022-09-09T13:04:25;98610.22;;;29.72;34.83
21236;BME280;10775;42.678;26.324;2022-09-09T13:06:51;98612.84;;;30.00;34.53
21236;BME280;10775;42.678;26.324;2022-09-09T13:09:20;98614.88;;;30.24;33.64
21236;BME280;10775;42.678;26.324;2022-09-09T13:11:55;98611.13;;;29.99;34.10
21236;BME280;10775;42.678;26.324;2022-09-09T13:14:31;98613.81;;;29.99;34.04
21236;BME280;10775;42.678;26.324;2022-09-09T13:17:01;98608.88;;;30.30;33.84
21236;BME280;10775;42.678;26.324;2022-09-09T13:19:38;98610.63;;;30.21;33.51
21236;BME280;10775;42.678;26.324;2022-09-09T13:25:21;98599.97;;;29.76;34.51
21236;BME280;10775;42.678;26.324;2022-09-09T13:28:05;98601.09;;;30.09;34.25
21236;BME280;10775;42.678;26.324;2022-09-09T13:30:35;98587.81;;;30.07;33.96
21236;BME280;10775;42.678;26.324;2022-09-09T13:35:51;98589.06;;;30.21;33.73
21236;BME280;10775;42.678;26.324;2022-09-09T13:38:19;98583.69;;;30.21;33.88
21236;BME280;10775;42.678;26.324;2022-09-09T13:41:07;98585.25;;;30.06;33.98
21236;BME280;10775;42.678;26.324;2022-09-09T13:43:38;98579.84;;;30.06;34.31
21236;BME280;10775;42.678;26.324;2022-09-09T13:46:39;98575.06;;;29.92;34.54
21236;BME280;10775;42.678;26.324;2022-09-09T13:51:45;98573.72;;;30.22;34.11
21236;BME280;10775;42.678;26.324;2022-09-09T13:54:16;98572.06;;;30.47;33.92
21236;BME280;10775;42.678;26.324;2022-09-09T13:56:43;98572.00;;;30.12;34.59
21236;BME280;10775;42.678;26.324;2022-09-09T13:59:15;98575.34;;;29.88;34.67
21236;BME280;10775;42.678;26.324;2022-09-09T14:01:41;98574.88;;;29.93;34.48
21236;BME280;10775;42.678;26.324;2022-09-09T14:04:07;98567.53;;;30.03;34.47
21236;BME280;10775;42.678;26.324;2022-09-09T14:06:35;98572.88;;;29.59;34.87
21236;BME280;10775;42.678;26.324;2022-09-09T14:09:05;98567.72;;;29.48;35.30
21236;BME280;10775;42.678;26.324;2022-09-09T14:11:30;98563.00;;;29.50;35.34
21236;BME280;10775;42.678;26.324;2022-09-09T14:13:56;98559.28;;;29.61;35.50
21236;BME280;10775;42.678;26.324;2022-09-09T14:16:21;98558.72;;;30.19;34.35
21236;BME280;10775;42.678;26.324;2022-09-09T14:18:47;98552.59;;;30.09;34.73
21236;BME280;10775;42.678;26.324;2022-09-09T14:21:13;98560.84;;;30.25;33.78
21236;BME280;10775;42.678;26.324;2022-09-09T14:23:41;98556.53;;;30.15;34.73
21236;BME280;10775;42.678;26.324;2022-09-09T14:26:07;98549.78;;;29.93;34.69
21236;BME280;10775;42.678;26.324;2022-09-09T14:28:33;98549.81;;;29.75;35.00
21236;BME280;10775;42.678;26.324;2022-09-09T14:31:00;98544.94;;;29.60;35.64
21236;BME280;10775;42.678;26.324;2022-09-09T14:33:27;98547.34;;;29.45;35.68
21236;BME280;10775;42.678;26.324;2022-09-09T14:35:58;98538.31;;;29.19;36.08
21236;BME280;10775;42.678;26.324;2022-09-09T14:38:28;98542.94;;;29.44;36.29
21236;BME280;10775;42.678;26.324;2022-09-09T14:40:54;98544.19;;;29.68;35.54
21236;BME280;10775;42.678;26.324;2022-09-09T14:43:19;98530.13;;;30.00;35.33
21236;BME280;10775;42.678;26.324;2022-09-09T14:45:46;98530.19;;;30.08;34.32
21236;BME280;10775;42.678;26.324;2022-09-09T14:48:13;98534.59;;;30.09;34.90
21236;BME280;10775;42.678;26.324;2022-09-09T14:50:40;98529.66;;;30.05;34.47
21236;BME280;10775;42.678;26.324;2022-09-09T14:53:07;98531.94;;;29.92;34.77
21236;BME280;10775;42.678;26.324;2022-09-09T14:55:34;98525.03;;;29.53;35.62
21236;BME280;10775;42.678;26.324;2022-09-09T14:57:59;98526.50;;;29.65;35.23
21236;BME280;10775;42.678;26.324;2022-09-09T15:00:25;98521.19;;;29.56;35.46
21236;BME280;10775;42.678;26.324;2022-09-09T15:02:54;98515.72;;;29.47;35.27
21236;BME280;10775;42.678;26.324;2022-09-09T15:05:20;98511.78;;;29.60;35.46
21236;BME280;10775;42.678;26.324;2022-09-09T15:07:46;98506.84;;;29.55;35.89
21236;BME280;10775;42.678;26.324;2022-09-09T15:10:13;98506.06;;;29.63;35.69
21236;BME280;10775;42.678;26.324;2022-09-09T15:12:38;98506.94;;;29.63;35.64
21236;BME280;10775;42.678;26.324;2022-09-09T15:15:05;98511.47;;;29.63;35.69
21236;BME280;10775;42.678;26.324;2022-09-09T15:17:30;98512.09;;;29.57;35.26
21236;BME280;10775;42.678;26.324;2022-09-09T15:19:56;98517.72;;;29.45;35.52
21236;BME280;10775;42.678;26.324;2022-09-09T15:22:22;98516.88;;;29.27;35.75
21236;BME280;10775;42.678;26.324;2022-09-09T15:24:49;98513.19;;;29.10;36.16
21236;BME280;10775;42.678;26.324;2022-09-09T15:27:15;98510.03;;;29.15;36.70